sensor_id;sensor_type;location;lat;lon;timestamp;P1;durP1;ratioP1;P2;durP2;ratioP2
55545;SDS011;44768;50.298;127.520;2022-09-02T00:02:03;19.00;;;2.38;;
55545;SDS011;44768;50.298;127.520;2022-09-02T00:07:05;21.52;;;2.90;;
55545;SDS011;44768;50.298;127.520;2022-09-02T00:12:07;18.50;;;2.75;;
55545;SDS011;44768;50.298;127.520;2022-09-02T00:17:08;16.10;;;3.28;;
55545;SDS011;44768;50.298;127.520;2022-09-02T00:22:09;17.48;;;2.15;;
55545;SDS011;44768;50.298;127.520;2022-09-02T00:27:11;14.05;;;2.95;;
55545;SDS011;44768;50.298;127.520;2022-09-02T00:32:12;11.98;;;2.70;;
55545;SDS011;44768;50.298;127.520;2022-09-02T00:37:14;10.57;;;2.25;;
55545;SDS011;44768;50.298;127.520;2022-09-02T00:42:16;20.55;;;2.80;;
55545;SDS011;44768;50.298;127.520;2022-09-02T00:47:17;17.65;;;2.15;;
55545;SDS011;44768;50.298;127.520;2022-09-02T00:52:23;12.15;;;2.47;;
55545;SDS011;44768;50.298;127.520;2022-09-02T00:57:31;14.40;;;2.63;;
55545;SDS011;44768;50.298;127.520;2022-09-02T01:02:34;18.92;;;2.78;;
55545;SDS011;44768;50.298;127.520;2022-09-02T01:07:37;66.68;;;6.55;;
55545;SDS011;44768;50.298;127.520;2022-09-02T01:12:39;28.85;;;3.00;;
55545;SDS011;44768;50.298;127.520;2022-09-02T01:17:42;13.38;;;2.75;;
55545;SDS011;44768;50.298;127.520;2022-09-02T01:22:43;18.23;;;3.45;;
55545;SDS011;44768;50.298;127.520;2022-09-02T01:27:45;9.00;;;2.80;;
55545;SDS011;44768;50.298;127.520;2022-09-02T01:32:47;17.25;;;4.32;;
55545;SDS011;44768;50.298;127.520;2022-09-02T01:37:52;18.13;;;2.67;;
55545;SDS011;44768;50.298;127.520;2022-09-02T01:42:55;18.77;;;2.90;;
55545;SDS011;44768;50.298;127.520;2022-09-02T01:47:58;12.13;;;2.67;;
55545;SDS011;44768;50.298;127.520;2022-09-02T01:53:00;8.48;;;2.92;;
55545;SDS011;44768;50.298;127.520;2022-09-02T01:58:04;10.68;;;2.47;;
55545;SDS011;44768;50.298;127.520;2022-09-02T02:03:05;19.30;;;6.95;;
55545;SDS011;44768;50.298;127.520;2022-09-02T02:08:07;16.08;;;2.35;;
55545;SDS011;44768;50.298;127.520;2022-09-02T02:13:09;12.68;;;2.40;;
55545;SDS011;44768;50.298;127.520;2022-09-02T02:18:10;19.90;;;1.90;;
55545;SDS011;44768;50.298;127.520;2022-09-02T02:23:11;10.30;;;2.17;;
55545;SDS011;44768;50.298;127.520;2022-09-02T02:33:14;16.10;;;2.85;;
55545;SDS011;44768;50.298;127.520;2022-09-02T02:38:15;14.15;;;2.10;;
55545;SDS011;44768;50.298;127.520;2022-09-02T02:43:17;20.58;;;3.58;;
55545;SDS011;44768;50.298;127.520;2022-09-02T02:48:18;21.23;;;2.47;;
55545;SDS011;44768;50.298;127.520;2022-09-02T02:53:20;17.00;;;4.22;;
55545;SDS011;44768;50.298;127.520;2022-09-02T02:58:21;14.02;;;2.00;;
55545;SDS011;44768;50.298;127.520;2022-09-02T03:03:23;15.77;;;2.13;;
55545;SDS011;44768;50.298;127.520;2022-09-02T03:08:25;14.50;;;2.40;;
55545;SDS011;44768;50.298;127.520;2022-09-02T03:13:26;13.40;;;2.20;;
55545;SDS011;44768;50.298;127.520;2022-09-02T03:18:27;16.27;;;1.90;;
55545;SDS011;44768;50.298;127.520;2022-09-02T03:23:29;22.42;;;2.45;;
55545;SDS011;44768;50.298;127.520;2022-09-02T03:28:30;20.50;;;2.72;;
55545;SDS011;44768;50.298;127.520;2022-09-02T03:33:33;21.35;;;2.47;;
55545;SDS011;44768;50.298;127.520;2022-09-02T03:38:34;17.27;;;2.85;;
55545;SDS011;44768;50.298;127.520;2022-09-02T03:43:35;14.40;;;2.38;;
55545;SDS011;44768;50.298;127.520;2022-09-02T03:48:37;13.25;;;2.33;;
55545;SDS011;44768;50.298;127.520;2022-09-02T03:53:39;18.35;;;2.63;;
55545;SDS011;44768;50.298;127.520;2022-09-02T03:58:44;29.95;;;9.50;;
55545;SDS011;44768;50.298;127.520;2022-09-02T04:03:46;34.30;;;3.38;;
55545;SDS011;44768;50.298;127.520;2022-09-02T04:08:48;28.55;;;2.83;;
55545;SDS011;44768;50.298;127.520;2022-09-02T04:13:50;25.98;;;2.65;;
55545;SDS011;44768;50.298;127.520;2022-09-02T04:18:52;30.95;;;2.40;;
55545;SDS011;44768;50.298;127.520;2022-09-02T04:23:54;21.35;;;4.78;;
55545;SDS011;44768;50.298;127.520;2022-09-02T04:28:56;38.40;;;4.50;;
55545;SDS011;44768;50.298;127.520;2022-09-02T04:33:57;17.38;;;2.40;;
55545;SDS011;44768;50.298;127.520;2022-09-02T04:38:59;20.33;;;2.63;;
55545;SDS011;44768;50.298;127.520;2022-09-02T04:44:00;23.83;;;2.72;;
55545;SDS011;44768;50.298;127.520;2022-09-02T04:49:02;25.83;;;3.08;;
55545;SDS011;44768;50.298;127.520;2022-09-02T04:54:04;29.17;;;5.38;;
55545;SDS011;44768;50.298;127.520;2022-09-02T04:59:08;29.13;;;3.85;;
55545;SDS011;44768;50.298;127.520;2022-09-02T05:04:10;38.70;;;4.20;;
55545;SDS011;44768;50.298;127.520;2022-09-02T05:09:12;42.65;;;4.13;;
55545;SDS011;44768;50.298;127.520;2022-09-02T05:14:13;17.98;;;3.05;;
55545;SDS011;44768;50.298;127.520;2022-09-02T05:19:16;19.40;;;2.42;;
55545;SDS011;44768;50.298;127.520;2022-09-02T05:24:17;48.83;;;4.03;;
55545;SDS011;44768;50.298;127.520;2022-09-02T05:29:18;36.13;;;4.88;;
55545;SDS011;44768;50.298;127.520;2022-09-02T05:34:20;30.25;;;4.15;;
55545;SDS011;44768;50.298;127.520;2022-09-02T05:39:22;31.02;;;2.80;;
55545;SDS011;44768;50.298;127.520;2022-09-02T05:44:23;27.48;;;2.78;;
55545;SDS011;44768;50.298;127.520;2022-09-02T05:49:25;27.98;;;3.50;;
55545;SDS011;44768;50.298;127.520;2022-09-02T05:54:29;13.40;;;2.90;;
55545;SDS011;44768;50.298;127.520;2022-09-02T05:59:31;22.30;;;2.42;;
55545;SDS011;44768;50.298;127.520;2022-09-02T06:04:41;25.05;;;3.03;;
55545;SDS011;44768;50.298;127.520;2022-09-02T06:09:43;15.73;;;2.20;;
55545;SDS011;44768;50.298;127.520;2022-09-02T06:14:48;14.70;;;1.88;;
55545;SDS011;44768;50.298;127.520;2022-09-02T06:19:49;43.45;;;5.13;;
55545;SDS011;44768;50.298;127.520;2022-09-02T06:24:50;47.92;;;6.22;;
55545;SDS011;44768;50.298;127.520;2022-09-02T06:29:52;26.70;;;3.25;;
55545;SDS011;44768;50.298;127.520;2022-09-02T06:34:53;21.05;;;2.97;;
55545;SDS011;44768;50.298;127.520;2022-09-02T06:39:54;22.33;;;2.72;;
55545;SDS011;44768;50.298;127.520;2022-09-02T06:44:55;11.52;;;1.92;;
55545;SDS011;44768;50.298;127.520;2022-09-02T06:49:58;24.75;;;2.15;;
55545;SDS011;44768;50.298;127.520;2022-09-02T06:54:59;19.85;;;1.88;;
55545;SDS011;44768;50.298;127.520;2022-09-02T07:00:07;17.13;;;2.33;;
55545;SDS011;44768;50.298;127.520;2022-09-02T07:05:09;29.73;;;2.85;;
55545;SDS011;44768;50.298;127.520;2022-09-02T07:10:11;15.00;;;2.17;;
55545;SDS011;44768;50.298;127.520;2022-09-02T07:15:13;37.85;;;3.03;;
55545;SDS011;44768;50.298;127.520;2022-09-02T07:20:14;29.15;;;2.65;;
55545;SDS011;44768;50.298;127.520;2022-09-02T07:25:16;31.08;;;2.17;;
55545;SDS011;44768;50.298;127.520;2022-09-02T07:30:17;26.45;;;3.05;;
55545;SDS011;44768;50.298;127.520;2022-09-02T07:35:19;19.77;;;2.08;;
55545;SDS011;44768;50.298;127.520;2022-09-02T07:40:20;33.53;;;3.78;;
55545;SDS011;44768;50.298;127.520;2022-09-02T07:45:21;39.47;;;4.93;;
55545;SDS011;44768;50.298;127.520;2022-09-02T07:50:25;38.70;;;4.38;;
55545;SDS011;44768;50.298;127.520;2022-09-02T07:55:26;36.55;;;3.97;;
55545;SDS011;44768;50.298;127.520;2022-09-02T08:00:30;22.67;;;2.97;;
55545;SDS011;44768;50.298;127.520;2022-09-02T08:05:32;43.00;;;3.17;;
55545;SDS011;44768;50.298;127.520;2022-09-02T08:10:35;15.52;;;2.25;;
55545;SDS011;44768;50.298;127.520;2022-09-02T08:15:36;33.05;;;2.70;;
55545;SDS011;44768;50.298;127.520;2022-09-02T08:20:37;48.40;;;3.95;;
55545;SDS011;44768;50.298;127.520;2022-09-02T08:25:38;32.25;;;3.00;;
55545;SDS011;44768;50.298;127.520;2022-09-02T08:30:40;40.95;;;3.53;;
55545;SDS011;44768;50.298;127.520;2022-09-02T08:35:42;33.75;;;3.03;;
55545;SDS011;44768;50.298;127.520;2022-09-02T08:40:43;34.60;;;2.65;;
55545;SDS011;44768;50.298;127.520;2022-09-02T08:45:44;22.42;;;2.95;;
55545;SDS011;44768;50.298;127.520;2022-09-02T08:50:48;19.80;;;2.92;;
55545;SDS011;44768;50.298;127.520;2022-09-02T08:55:51;37.25;;;3.92;;
55545;SDS011;44768;50.298;127.520;2022-09-02T09:01:02;142.18;;;8.82;;
55545;SDS011;44768;50.298;127.520;2022-09-02T09:06:14;38.70;;;3.20;;
55545;SDS011;44768;50.298;127.520;2022-09-02T09:16:37;34.50;;;3.78;;
55545;SDS011;44768;50.298;127.520;2022-09-02T09:21:40;59.25;;;4.85;;
55545;SDS011;44768;50.298;127.520;2022-09-02T09:26:41;21.27;;;2.65;;
55545;SDS011;44768;50.298;127.520;2022-09-02T09:31:42;36.88;;;3.42;;
55545;SDS011;44768;50.298;127.520;2022-09-02T09:36:47;31.88;;;2.90;;
55545;SDS011;44768;50.298;127.520;2022-09-02T09:41:53;30.30;;;2.92;;
55545;SDS011;44768;50.298;127.520;2022-09-02T09:47:02;34.22;;;2.83;;
55545;SDS011;44768;50.298;127.520;2022-09-02T09:52:06;27.02;;;2.70;;
55545;SDS011;44768;50.298;127.520;2022-09-02T09:57:20;33.25;;;2.97;;
55545;SDS011;44768;50.298;127.520;2022-09-02T10:02:25;34.45;;;4.40;;
55545;SDS011;44768;50.298;127.520;2022-09-02T10:07:41;37.20;;;4.40;;
55545;SDS011;44768;50.298;127.520;2022-09-02T10:12:43;47.08;;;5.10;;
55545;SDS011;44768;50.298;127.520;2022-09-02T10:38:48;45.47;;;5.53;;
55545;SDS011;44768;50.298;127.520;2022-09-02T10:49:12;33.95;;;5.78;;
55545;SDS011;44768;50.298;127.520;2022-09-02T11:19:57;38.05;;;10.35;;
55545;SDS011;44768;50.298;127.520;2022-09-02T11:25:02;44.05;;;8.25;;
55545;SDS011;44768;50.298;127.520;2022-09-02T11:35:15;44.15;;;12.40;;
55545;SDS011;44768;50.298;127.520;2022-09-02T11:46:05;31.05;;;7.20;;
55545;SDS011;44768;50.298;127.520;2022-09-02T11:56:57;61.65;;;29.63;;
55545;SDS011;44768;50.298;127.520;2022-09-02T12:01:59;33.60;;;5.65;;
55545;SDS011;44768;50.298;127.520;2022-09-02T12:12:08;33.58;;;8.02;;
55545;SDS011;44768;50.298;127.520;2022-09-02T12:17:09;49.47;;;11.30;;
55545;SDS011;44768;50.298;127.520;2022-09-02T12:22:31;49.40;;;15.27;;
55545;SDS011;44768;50.298;127.520;2022-09-02T12:27:33;41.35;;;10.90;;
55545;SDS011;44768;50.298;127.520;2022-09-02T12:37:53;51.92;;;14.80;;
55545;SDS011;44768;50.298;127.520;2022-09-02T12:42:55;36.72;;;11.38;;
55545;SDS011;44768;50.298;127.520;2022-09-02T12:48:10;31.55;;;8.30;;
55545;SDS011;44768;50.298;127.520;2022-09-02T12:58:25;19.77;;;7.27;;
55545;SDS011;44768;50.298;127.520;2022-09-02T13:03:34;22.48;;;6.88;;
55545;SDS011;44768;50.298;127.520;2022-09-02T13:14:16;89.90;;;12.50;;
55545;SDS011;44768;50.298;127.520;2022-09-02T13:35:05;25.63;;;8.00;;
55545;SDS011;44768;50.298;127.520;2022-09-02T13:45:22;26.30;;;7.10;;
55545;SDS011;44768;50.298;127.520;2022-09-02T13:50:24;27.52;;;7.10;;
55545;SDS011;44768;50.298;127.520;2022-09-02T13:55:27;15.98;;;5.10;;
55545;SDS011;44768;50.298;127.520;2022-09-02T14:00:31;15.95;;;5.78;;
55545;SDS011;44768;50.298;127.520;2022-09-02T14:05:34;15.32;;;4.72;;
55545;SDS011;44768;50.298;127.520;2022-09-02T14:10:36;25.23;;;5.35;;
55545;SDS011;44768;50.298;127.520;2022-09-02T14:15:39;11.63;;;5.03;;
55545;SDS011;44768;50.298;127.520;2022-09-02T14:25:54;18.27;;;7.30;;
55545;SDS011;44768;50.298;127.520;2022-09-02T14:31:00;26.40;;;5.90;;
55545;SDS011;44768;50.298;127.520;2022-09-02T14:36:02;23.60;;;6.55;;
55545;SDS011;44768;50.298;127.520;2022-09-02T14:46:28;11.35;;;4.18;;
55545;SDS011;44768;50.298;127.520;2022-09-02T14:56:43;22.48;;;3.83;;
55545;SDS011;44768;50.298;127.520;2022-09-02T15:01:46;17.65;;;4.40;;
55545;SDS011;44768;50.298;127.520;2022-09-02T15:06:50;21.23;;;4.57;;
55545;SDS011;44768;50.298;127.520;2022-09-02T15:11:52;21.65;;;4.53;;
55545;SDS011;44768;50.298;127.520;2022-09-02T15:16:54;13.60;;;4.95;;
55545;SDS011;44768;50.298;127.520;2022-09-02T15:21:55;10.30;;;3.83;;
55545;SDS011;44768;50.298;127.520;2022-09-02T15:26:56;8.20;;;3.28;;
55545;SDS011;44768;50.298;127.520;2022-09-02T15:37:00;14.80;;;3.67;;
55545;SDS011;44768;50.298;127.520;2022-09-02T15:42:02;14.68;;;3.40;;
55545;SDS011;44768;50.298;127.520;2022-09-02T15:47:03;11.63;;;3.83;;
55545;SDS011;44768;50.298;127.520;2022-09-02T15:52:04;13.93;;;3.83;;
55545;SDS011;44768;50.298;127.520;2022-09-02T15:57:05;20.65;;;5.03;;
55545;SDS011;44768;50.298;127.520;2022-09-02T16:02:07;16.35;;;5.32;;
55545;SDS011;44768;50.298;127.520;2022-09-02T16:07:09;25.42;;;5.28;;
55545;SDS011;44768;50.298;127.520;2022-09-02T16:12:10;13.05;;;5.10;;
55545;SDS011;44768;50.298;127.520;2022-09-02T16:17:12;23.42;;;5.60;;
55545;SDS011;44768;50.298;127.520;2022-09-02T16:22:13;20.70;;;5.10;;
55545;SDS011;44768;50.298;127.520;2022-09-02T16:27:14;16.83;;;4.70;;
55545;SDS011;44768;50.298;127.520;2022-09-02T16:32:35;24.98;;;5.40;;
55545;SDS011;44768;50.298;127.520;2022-09-02T16:37:37;17.45;;;4.85;;
55545;SDS011;44768;50.298;127.520;2022-09-02T16:42:38;27.83;;;5.55;;
55545;SDS011;44768;50.298;127.520;2022-09-02T16:47:40;18.88;;;5.60;;
55545;SDS011;44768;50.298;127.520;2022-09-02T16:52:41;15.32;;;4.80;;
55545;SDS011;44768;50.298;127.520;2022-09-02T16:57:43;23.42;;;6.30;;
55545;SDS011;44768;50.298;127.520;2022-09-02T17:02:44;23.42;;;5.95;;
55545;SDS011;44768;50.298;127.520;2022-09-02T17:07:46;26.85;;;7.05;;
55545;SDS011;44768;50.298;127.520;2022-09-02T17:12:47;30.83;;;7.30;;
55545;SDS011;44768;50.298;127.520;2022-09-02T17:17:48;19.98;;;6.22;;
55545;SDS011;44768;50.298;127.520;2022-09-02T17:22:50;18.05;;;5.65;;
55545;SDS011;44768;50.298;127.520;2022-09-02T17:27:51;20.08;;;5.57;;
55545;SDS011;44768;50.298;127.520;2022-09-02T17:32:52;21.33;;;5.80;;
55545;SDS011;44768;50.298;127.520;2022-09-02T17:37:54;20.98;;;5.05;;
55545;SDS011;44768;50.298;127.520;2022-09-02T17:42:55;15.32;;;4.60;;
55545;SDS011;44768;50.298;127.520;2022-09-02T17:52:57;50.13;;;7.45;;
55545;SDS011;44768;50.298;127.520;2022-09-02T17:58:02;54.45;;;7.93;;
55545;SDS011;44768;50.298;127.520;2022-09-02T18:03:06;56.00;;;7.65;;
55545;SDS011;44768;50.298;127.520;2022-09-02T18:18:45;19.75;;;5.13;;
55545;SDS011;44768;50.298;127.520;2022-09-02T18:23:59;20.27;;;5.00;;
55545;SDS011;44768;50.298;127.520;2022-09-02T18:29:08;14.95;;;4.25;;
55545;SDS011;44768;50.298;127.520;2022-09-02T18:34:21;9.80;;;3.50;;
55545;SDS011;44768;50.298;127.520;2022-09-02T18:49:43;15.85;;;4.70;;
55545;SDS011;44768;50.298;127.520;2022-09-02T18:54:47;11.52;;;3.78;;
55545;SDS011;44768;50.298;127.520;2022-09-02T18:59:53;15.55;;;4.00;;
55545;SDS011;44768;50.298;127.520;2022-09-02T19:04:56;12.82;;;4.22;;
55545;SDS011;44768;50.298;127.520;2022-09-02T19:09:58;12.57;;;3.80;;
55545;SDS011;44768;50.298;127.520;2022-09-02T19:15:03;9.32;;;3.90;;
55545;SDS011;44768;50.298;127.520;2022-09-02T19:20:06;14.82;;;4.28;;
55545;SDS011;44768;50.298;127.520;2022-09-02T19:25:12;14.73;;;4.05;;
55545;SDS011;44768;50.298;127.520;2022-09-02T19:30:15;13.00;;;4.18;;
55545;SDS011;44768;50.298;127.520;2022-09-02T19:35:22;20.95;;;4.50;;
55545;SDS011;44768;50.298;127.520;2022-09-02T19:40:26;17.00;;;6.03;;
55545;SDS011;44768;50.298;127.520;2022-09-02T19:45:29;21.88;;;7.68;;
55545;SDS011;44768;50.298;127.520;2022-09-02T19:50:31;20.23;;;8.23;;
55545;SDS011;44768;50.298;127.520;2022-09-02T19:55:32;24.77;;;8.85;;
55545;SDS011;44768;50.298;127.520;2022-09-02T20:00:40;22.63;;;9.07;;
55545;SDS011;44768;50.298;127.520;2022-09-02T20:05:50;18.17;;;8.50;;
55545;SDS011;44768;50.298;127.520;2022-09-02T20:11:02;20.55;;;9.23;;
55545;SDS011;44768;50.298;127.520;2022-09-02T20:16:04;24.10;;;8.98;;
55545;SDS011;44768;50.298;127.520;2022-09-02T20:21:06;21.90;;;8.73;;
55545;SDS011;44768;50.298;127.520;2022-09-02T20:31:12;21.70;;;9.98;;
55545;SDS011;44768;50.298;127.520;2022-09-02T20:36:22;28.48;;;9.57;;
55545;SDS011;44768;50.298;127.520;2022-09-02T20:51:57;27.42;;;10.40;;
55545;SDS011;44768;50.298;127.520;2022-09-02T21:02:22;34.65;;;11.88;;
55545;SDS011;44768;50.298;127.520;2022-09-02T21:07:35;37.38;;;11.77;;
55545;SDS011;44768;50.298;127.520;2022-09-02T21:12:44;67.25;;;11.00;;
55545;SDS011;44768;50.298;127.520;2022-09-02T21:18:12;28.35;;;10.50;;
55545;SDS011;44768;50.298;127.520;2022-09-02T21:23:13;34.53;;;9.83;;
55545;SDS011;44768;50.298;127.520;2022-09-02T21:28:32;25.90;;;9.98;;
55545;SDS011;44768;50.298;127.520;2022-09-02T21:33:36;32.88;;;9.80;;
55545;SDS011;44768;50.298;127.520;2022-09-02T21:38:39;31.48;;;9.88;;
55545;SDS011;44768;50.298;127.520;2022-09-02T21:43:44;31.35;;;9.50;;
55545;SDS011;44768;50.298;127.520;2022-09-02T21:48:59;33.35;;;9.20;;
55545;SDS011;44768;50.298;127.520;2022-09-02T21:54:24;34.85;;;9.65;;
55545;SDS011;44768;50.298;127.520;2022-09-02T22:09:40;32.15;;;8.80;;
55545;SDS011;44768;50.298;127.520;2022-09-02T22:20:03;29.80;;;8.43;;
55545;SDS011;44768;50.298;127.520;2022-09-02T22:25:06;29.65;;;7.93;;
55545;SDS011;44768;50.298;127.520;2022-09-02T22:30:15;32.22;;;7.88;;
55545;SDS011;44768;50.298;127.520;2022-09-02T22:40:23;26.52;;;7.07;;
55545;SDS011;44768;50.298;127.520;2022-09-02T22:45:33;24.38;;;6.88;;
55545;SDS011;44768;50.298;127.520;2022-09-02T22:50:55;26.98;;;6.65;;
55545;SDS011;44768;50.298;127.520;2022-09-02T22:56:39;23.05;;;6.75;;
55545;SDS011;44768;50.298;127.520;2022-09-02T23:01:53;37.73;;;7.90;;
55545;SDS011;44768;50.298;127.520;2022-09-02T23:06:56;33.83;;;6.80;;
55545;SDS011;44768;50.298;127.520;2022-09-02T23:32:35;56.58;;;7.75;;
55545;SDS011;44768;50.298;127.520;2022-09-02T23:42:46;57.92;;;7.18;;
